Time;durP1;ratioP1;P1;durP2;ratioP2;P2;SDS_P1;SDS_P2;PMS_P1;PMS_P2;Temp;Humidity;BMP_temperature;BMP_pressure;BME280_temperature;BME280_humidity;BME280_pressure;Samples;Min_cycle;Max_cycle;Signal;HPM_P1;HPM_P2
2022/06/01 00:00:22;;;;;;;6.93;3.72;;;;;;;;;;4218309;34;20726;-69
2022/06/01 00:02:48;;;;;;;8.07;3.60;;;;;;;;;;4218470;34;20114;-70
2022/06/01 00:31:47;;;;;;;;;;;;;;;;;;4845346;28;20130;-65
2022/06/01 00:34:13;;;;;;;9.27;3.60;;;;;;;;;;4193605;34;19970;-64
2022/06/01 00:36:39;;;;;;;7.25;4.03;;;;;;;;;;4185004;34;20579;-64
2022/06/01 00:39:05;;;;;;;12.10;4.18;;;;;;;;;;4179667;34;20254;-65
2022/06/01 00:41:32;;;;;;;6.72;3.60;;;;;;;;;;4176596;34;20106;-65
2022/06/01 00:43:57;;;;;;;9.35;4.40;;;;;;;;;;4181296;34;20201;-64
2022/06/01 00:46:23;;;;;;;10.55;3.83;;;;;;;;;;4187368;34;20447;-64
2022/06/01 00:48:53;;;;;;;7.97;3.55;;;;;;;;;;4163753;34;20126;-70
2022/06/01 00:51:24;;;;;;;8.45;4.20;;;;;;;;;;4159256;34;20184;-71
2022/06/01 00:53:51;;;;;;;20.85;6.18;;;;;;;;;;4177265;34;20185;-70
2022/06/01 00:56:20;;;;;;;10.43;4.62;;;;;;;;;;4177283;34;20125;-70
2022/06/01 00:58:49;;;;;;;14.40;4.32;;;;;;;;;;4177051;34;20228;-70
2022/06/01 01:01:19;;;;;;;5.75;3.70;;;;;;;;;;4163652;34;20113;-69
2022/06/01 01:03:50;;;;;;;15.27;4.22;;;;;;;;;;4176538;34;20138;-65
2022/06/01 01:06:28;;;;;;;8.20;4.10;;;;;;;;;;4176611;34;20107;-66
2022/06/01 01:08:54;;;;;;;11.05;4.03;;;;;;;;;;4163451;34;20169;-65
2022/06/01 01:11:30;;;;;;;8.80;4.18;;;;;;;;;;4176522;34;20647;-65
2022/06/01 01:13:57;;;;;;;11.10;4.45;;;;;;;;;;4178478;34;20186;-65
2022/06/01 01:16:24;;;;;;;12.07;3.87;;;;;;;;;;4181844;34;20095;-65
2022/06/01 01:18:51;;;;;;;17.37;4.30;;;;;;;;;;4179254;34;20124;-65
2022/06/01 01:21:17;;;;;;;9.20;4.18;;;;;;;;;;4179192;34;20189;-64
2022/06/01 01:23:54;;;;;;;29.12;6.12;;;;;;;;;;4192259;34;20148;-63
2022/06/01 01:26:22;;;;;;;14.87;5.60;;;;;;;;;;4191932;34;20129;-65
2022/06/01 01:28:48;;;;;;;21.83;7.15;;;;;;;;;;4179475;34;20120;-69
2022/06/01 01:31:17;;;;;;;7.47;4.47;;;;;;;;;;4192008;34;20154;-69
2022/06/01 01:33:44;;;;;;;11.50;4.43;;;;;;;;;;4179223;34;20601;-70
2022/06/01 01:36:11;;;;;;;5.95;4.70;;;;;;;;;;4192032;34;20112;-70
2022/06/01 01:38:52;;;;;;;15.63;4.68;;;;;;;;;;4179119;34;20119;-68
2022/06/01 01:41:29;;;;;;;7.65;4.10;;;;;;;;;;4192058;34;20116;-68
2022/06/01 01:44:04;;;;;;;16.87;5.25;;;;;;;;;;4156307;34;20126;-68
2022/06/01 01:46:31;;;;;;;11.12;4.60;;;;;;;;;;4164805;34;20455;-68
2022/06/01 01:48:57;;;;;;;16.30;4.60;;;;;;;;;;4165627;34;20181;-68
2022/06/01 01:51:25;;;;;;;9.48;5.20;;;;;;;;;;4154319;34;20197;-68
2022/06/01 01:53:53;;;;;;;11.35;5.65;;;;;;;;;;4165431;34;20522;-69
2022/06/01 01:56:30;;;;;;;17.42;4.95;;;;;;;;;;4165172;34;20179;-68
2022/06/01 01:59:03;;;;;;;11.55;4.70;;;;;;;;;;4165331;34;20118;-68
2022/06/01 02:01:45;;;;;;;11.43;4.55;;;;;;;;;;4154199;34;20129;-68
2022/06/01 02:07:29;;;;;;;8.82;4.93;;;;;;;;;;4167501;34;20103;-68
2022/06/01 02:12:42;;;;;;;10.57;5.00;;;;;;;;;;4167520;34;20099;-68
2022/06/01 02:15:11;;;;;;;17.00;5.25;;;;;;;;;;4177783;34;20094;-69
2022/06/01 02:17:50;;;;;;;15.75;6.70;;;;;;;;;;4174068;34;20610;-68
2022/06/01 02:20:20;;;;;;;12.02;4.70;;;;;;;;;;4178719;34;20124;-68
2022/06/01 02:22:46;;;;;;;8.07;4.82;;;;;;;;;;4178896;34;20129;-69
2022/06/01 02:25:12;;;;;;;12.57;5.12;;;;;;;;;;4178763;34;20461;-69
2022/06/01 02:27:40;;;;;;;16.02;4.72;;;;;;;;;;4178884;34;20130;-68
2022/06/01 02:30:33;;;;;;;11.07;4.05;;;;;;;;;;4178683;34;20189;-67
2022/06/01 02:33:01;;;;;;;10.73;4.47;;;;;;;;;;4174459;34;20501;-68
2022/06/01 02:35:30;;;;;;;7.97;4.05;;;;;;;;;;4155956;34;20547;-66
2022/06/01 02:37:56;;;;;;;8.68;5.30;;;;;;;;;;4178540;34;20109;-68
2022/06/01 02:40:24;;;;;;;10.35;4.37;;;;;;;;;;4178485;34;20121;-67
2022/06/01 02:42:51;;;;;;;6.72;4.15;;;;;;;;;;4189544;34;20544;-68
2022/06/01 02:45:20;;;;;;;8.35;4.20;;;;;;;;;;4177558;34;20118;-69
2022/06/01 02:47:47;;;;;;;9.88;4.28;;;;;;;;;;4177820;34;20111;-68
2022/06/01 02:50:16;;;;;;;11.00;4.22;;;;;;;;;;4164955;34;20109;-68
2022/06/01 02:52:42;;;;;;;8.85;3.97;;;;;;;;;;4164931;34;20116;-67
2022/06/01 02:55:09;;;;;;;9.13;3.62;;;;;;;;;;4164793;34;20103;-68
2022/06/01 02:57:37;;;;;;;8.57;3.75;;;;;;;;;;4164856;34;20114;-68
2022/06/01 03:00:09;;;;;;;8.60;4.45;;;;;;;;;;4164849;34;20518;-67
2022/06/01 03:02:39;;;;;;;11.45;4.00;;;;;;;;;;4164822;34;20580;-67
2022/06/01 03:05:05;;;;;;;10.02;4.43;;;;;;;;;;4164782;34;20110;-67
2022/06/01 03:07:32;;;;;;;10.80;4.37;;;;;;;;;;4177547;34;20129;-66
2022/06/01 03:09:58;;;;;;;8.82;4.43;;;;;;;;;;4177427;34;20118;-67
2022/06/01 03:12:24;;;;;;;7.43;4.18;;;;;;;;;;4177232;34;20122;-67
2022/06/01 03:14:49;;;;;;;14.77;4.40;;;;;;;;;;4177548;34;20111;-65
2022/06/01 03:17:15;;;;;;;7.30;4.45;;;;;;;;;;4177226;34;20130;-67
2022/06/01 03:19:41;;;;;;;9.18;4.15;;;;;;;;;;4177561;34;20686;-68
2022/06/01 03:22:07;;;;;;;10.05;3.97;;;;;;;;;;4164235;34;20554;-67
2022/06/01 03:24:33;;;;;;;9.27;3.80;;;;;;;;;;4164733;34;20122;-67
2022/06/01 03:26:59;;;;;;;14.63;4.25;;;;;;;;;;4177248;34;20118;-67
2022/06/01 03:29:25;;;;;;;9.80;4.00;;;;;;;;;;4177044;34;20132;-67
2022/06/01 03:31:52;;;;;;;8.70;4.05;;;;;;;;;;4176950;34;20117;-66
2022/06/01 03:34:18;;;;;;;8.50;3.62;;;;;;;;;;4176000;34;20217;-68
2022/06/01 03:36:44;;;;;;;6.68;3.10;;;;;;;;;;4152510;34;20504;-67
2022/06/01 03:39:10;;;;;;;9.63;3.72;;;;;;;;;;4164039;34;20136;-68
2022/06/01 03:41:36;;;;;;;15.93;3.83;;;;;;;;;;4152550;34;20125;-68
2022/06/01 03:46:47;;;;;;;17.17;3.77;;;;;;;;;;4176592;34;20669;-68
2022/06/01 03:49:13;;;;;;;7.85;4.15;;;;;;;;;;4163749;34;20106;-68
2022/06/01 03:51:39;;;;;;;8.40;4.20;;;;;;;;;;4176549;34;20185;-68
2022/06/01 03:54:06;;;;;;;8.57;3.90;;;;;;;;;;4176397;34;20110;-68
2022/06/01 03:56:32;;;;;;;12.95;4.30;;;;;;;;;;4163588;34;20546;-68
2022/06/01 03:58:59;;;;;;;7.40;3.70;;;;;;;;;;4176518;34;20197;-68
2022/06/01 04:01:24;;;;;;;9.13;3.25;;;;;;;;;;4163739;34;20123;-66
2022/06/01 04:03:51;;;;;;;5.95;3.53;;;;;;;;;;4163653;34;20141;-68
2022/06/01 04:06:17;;;;;;;10.55;3.97;;;;;;;;;;4176138;34;20206;-69
2022/06/01 04:08:42;;;;;;;6.97;3.53;;;;;;;;;;4176651;34;20119;-68
2022/06/01 04:11:08;;;;;;;11.18;4.03;;;;;;;;;;4163515;34;20142;-68
2022/06/01 04:13:35;;;;;;;5.30;3.80;;;;;;;;;;4176163;34;20555;-68
2022/06/01 04:16:02;;;;;;;9.38;3.62;;;;;;;;;;4176216;34;20250;-70
2022/06/01 04:18:28;;;;;;;5.30;3.53;;;;;;;;;;4176070;34;20126;-72
2022/06/01 04:20:55;;;;;;;8.25;3.22;;;;;;;;;;4176447;34;20145;-69
2022/06/01 04:23:20;;;;;;;4.32;2.47;;;;;;;;;;4176381;34;20111;-69
2022/06/01 04:25:46;;;;;;;9.32;2.65;;;;;;;;;;4176195;34;20517;-69
2022/06/01 04:28:12;;;;;;;4.97;2.10;;;;;;;;;;4152261;34;20130;-69
2022/06/01 04:30:38;;;;;;;7.93;2.03;;;;;;;;;;4163383;34;20194;-68
2022/06/01 04:33:04;;;;;;;4.85;2.00;;;;;;;;;;4176573;34;20122;-67
2022/06/01 04:35:30;;;;;;;4.05;2.12;;;;;;;;;;4176446;34;20562;-67
2022/06/01 04:38:12;;;;;;;4.40;1.87;;;;;;;;;;4176420;34;20118;-68
2022/06/01 04:40:46;;;;;;;3.92;1.80;;;;;;;;;;4176532;34;20590;-67
2022/06/01 04:43:14;;;;;;;2.20;1.80;;;;;;;;;;4176493;34;20114;-68
2022/06/01 04:45:40;;;;;;;8.35;2.33;;;;;;;;;;4176412;34;20094;-66
2022/06/01 04:48:06;;;;;;;2.03;1.83;;;;;;;;;;4178178;34;20218;-67
2022/06/01 04:50:32;;;;;;;5.78;1.73;;;;;;;;;;4178743;34;20545;-68
2022/06/01 04:52:58;;;;;;;2.22;1.60;;;;;;;;;;4178495;34;20536;-68
2022/06/01 04:55:24;;;;;;;3.17;2.00;;;;;;;;;;4178449;34;20222;-69
2022/06/01 04:57:50;;;;;;;4.05;2.80;;;;;;;;;;4178377;34;20118;-69
2022/06/01 05:00:16;;;;;;;3.25;2.17;;;;;;;;;;4178459;34;20207;-66
2022/06/01 05:02:42;;;;;;;2.70;2.20;;;;;;;;;;4178344;34;20212;-67
2022/06/01 05:05:09;;;;;;;4.40;2.10;;;;;;;;;;4178474;34;20141;-67
2022/06/01 05:07:35;;;;;;;3.85;1.80;;;;;;;;;;4165635;34;20134;-71
2022/06/01 05:10:01;;;;;;;6.32;1.98;;;;;;;;;;4178447;34;20140;-69
2022/06/01 05:12:27;;;;;;;3.28;2.08;;;;;;;;;;4165894;34;20113;-68
2022/06/01 05:14:53;;;;;;;2.90;2.30;;;;;;;;;;4178516;34;20148;-65
2022/06/01 05:17:19;;;;;;;1.98;1.80;;;;;;;;;;4165377;34;20138;-67
2022/06/01 05:19:45;;;;;;;3.78;2.05;;;;;;;;;;4165581;34;20115;-67
2022/06/01 05:22:11;;;;;;;4.37;1.90;;;;;;;;;;4178048;34;20201;-65
2022/06/01 05:24:37;;;;;;;6.22;1.95;;;;;;;;;;4165699;34;20175;-66
2022/06/01 05:27:03;;;;;;;8.88;2.00;;;;;;;;;;4178015;34;20519;-66
2022/06/01 05:29:29;;;;;;;4.78;1.40;;;;;;;;;;4154343;34;20226;-67
2022/06/01 05:31:55;;;;;;;3.28;1.70;;;;;;;;;;4178013;34;20102;-67
2022/06/01 05:34:21;;;;;;;3.95;1.85;;;;;;;;;;4177994;34;20126;-70
2022/06/01 05:36:47;;;;;;;4.55;3.10;;;;;;;;;;4177906;34;20157;-67
2022/06/01 05:39:13;;;;;;;3.30;1.70;;;;;;;;;;4178437;34;20110;-67
2022/06/01 05:41:40;;;;;;;3.03;1.70;;;;;;;;;;4178217;34;20133;-68
2022/06/01 05:44:06;;;;;;;6.50;1.80;;;;;;;;;;4165471;34;20439;-66
2022/06/01 05:46:35;;;;;;;2.80;1.73;;;;;;;;;;4177856;34;20106;-67
2022/06/01 05:49:04;;;;;;;7.15;2.10;;;;;;;;;;4165151;34;20201;-66
2022/06/01 05:51:30;;;;;;;5.25;1.60;;;;;;;;;;4178102;34;20230;-67
2022/06/01 05:53:56;;;;;;;3.70;1.73;;;;;;;;;;4177952;34;20126;-67
2022/06/01 05:56:22;;;;;;;2.85;1.73;;;;;;;;;;4177910;34;20127;-67
2022/06/01 05:58:50;;;;;;;1.70;1.60;;;;;;;;;;4164951;34;20117;-68
2022/06/01 06:01:17;;;;;;;2.03;1.65;;;;;;;;;;4177932;34;20531;-67
2022/06/01 06:03:43;;;;;;;3.20;1.95;;;;;;;;;;4177951;34;20141;-65
2022/06/01 06:06:12;;;;;;;2.42;1.58;;;;;;;;;;4177819;34;20119;-70
2022/06/01 06:08:40;;;;;;;6.28;1.73;;;;;;;;;;4165750;34;20087;-67
2022/06/01 06:11:06;;;;;;;3.70;1.45;;;;;;;;;;4178092;34;20124;-68
2022/06/01 06:13:36;;;;;;;9.93;1.98;;;;;;;;;;4177731;34;20511;-66
2022/06/01 06:16:03;;;;;;;1.70;1.60;;;;;;;;;;4178012;34;20201;-66
2022/06/01 06:18:29;;;;;;;1.40;1.30;;;;;;;;;;4177570;34;20129;-67
2022/06/01 06:20:55;;;;;;;5.80;1.90;;;;;;;;;;4177870;34;20102;-68
2022/06/01 06:23:21;;;;;;;1.45;1.35;;;;;;;;;;4177879;34;20212;-65
2022/06/01 06:25:48;;;;;;;2.37;1.40;;;;;;;;;;4177719;34;20095;-65
2022/06/01 06:28:14;;;;;;;2.03;1.70;;;;;;;;;;4177627;34;20118;-66
2022/06/01 06:30:40;;;;;;;1.70;1.55;;;;;;;;;;4164936;34;20618;-68
2022/06/01 06:33:06;;;;;;;2.72;1.73;;;;;;;;;;4177670;34;20199;-65
2022/06/01 06:35:33;;;;;;;5.28;1.67;;;;;;;;;;4177893;34;20137;-66
2022/06/01 06:37:59;;;;;;;4.78;1.85;;;;;;;;;;4177760;34;20138;-64
2022/06/01 06:40:26;;;;;;;3.58;1.50;;;;;;;;;;4177599;34;20481;-64
2022/06/01 06:42:53;;;;;;;3.08;1.70;;;;;;;;;;4177874;34;20337;-65
2022/06/01 06:45:19;;;;;;;4.80;1.50;;;;;;;;;;4177641;34;20122;-65
2022/06/01 06:47:45;;;;;;;4.72;1.65;;;;;;;;;;4164851;34;20568;-65
2022/06/01 06:50:13;;;;;;;1.67;1.23;;;;;;;;;;4177820;34;20294;-65
2022/06/01 06:52:39;;;;;;;1.55;1.20;;;;;;;;;;4164593;34;20141;-65
2022/06/01 06:55:07;;;;;;;2.92;1.60;;;;;;;;;;4177541;34;20139;-66
2022/06/01 06:57:33;;;;;;;1.37;1.30;;;;;;;;;;4177257;34;20107;-67
2022/06/01 06:59:59;;;;;;;1.92;1.40;;;;;;;;;;4164842;34;20103;-69
2022/06/01 07:02:25;;;;;;;1.30;1.20;;;;;;;;;;4177564;34;20122;-67
2022/06/01 07:04:51;;;;;;;2.05;1.40;;;;;;;;;;4164983;34;20621;-69
2022/06/01 07:07:17;;;;;;;1.40;1.30;;;;;;;;;;4177229;34;20125;-69
2022/06/01 07:09:43;;;;;;;1.30;1.20;;;;;;;;;;4176717;34;20121;-68
2022/06/01 07:12:12;;;;;;;1.50;1.40;;;;;;;;;;4177338;34;20201;-69
2022/06/01 07:14:38;;;;;;;1.50;1.40;;;;;;;;;;4177319;34;20506;-68
2022/06/01 07:17:05;;;;;;;5.03;1.40;;;;;;;;;;4177523;34;20126;-67
2022/06/01 07:19:31;;;;;;;1.65;1.50;;;;;;;;;;4164750;34;20102;-67
2022/06/01 07:21:57;;;;;;;4.00;1.33;;;;;;;;;;4177525;34;20542;-67
2022/06/01 07:24:23;;;;;;;1.60;1.50;;;;;;;;;;4177304;34;20181;-68
2022/06/01 07:26:49;;;;;;;1.83;1.60;;;;;;;;;;4177304;34;20118;-68
2022/06/01 07:29:18;;;;;;;2.72;1.67;;;;;;;;;;4177302;34;20522;-67
2022/06/01 07:31:45;;;;;;;1.60;1.50;;;;;;;;;;4164504;34;20219;-67
2022/06/01 07:34:11;;;;;;;1.40;1.30;;;;;;;;;;4177278;34;20126;-68
2022/06/01 07:36:37;;;;;;;2.95;1.73;;;;;;;;;;4177145;34;20148;-67
2022/06/01 07:44:41;;;;;;;2.08;1.40;;;;;;;;;;4177007;34;20072;-67
2022/06/01 07:47:08;;;;;;;2.20;1.37;;;;;;;;;;4177090;34;20456;-67
2022/06/01 07:49:34;;;;;;;1.35;1.27;;;;;;;;;;4164345;34;20111;-67
2022/06/01 07:52:00;;;;;;;10.57;2.37;;;;;;;;;;4176905;34;20141;-66
2022/06/01 07:54:25;;;;;;;1.23;1.12;;;;;;;;;;4176944;34;20106;-67
2022/06/01 07:56:52;;;;;;;2.75;1.37;;;;;;;;;;4164279;34;20640;-68
2022/06/01 07:59:18;;;;;;;1.30;1.20;;;;;;;;;;4176838;34;20214;-67
2022/06/01 08:01:44;;;;;;;1.67;1.40;;;;;;;;;;4174663;34;20627;-65
2022/06/01 08:04:10;;;;;;;1.60;1.50;;;;;;;;;;4172538;34;20483;-66
2022/06/01 08:06:38;;;;;;;1.50;1.40;;;;;;;;;;4172883;34;20138;-65
2022/06/01 08:09:05;;;;;;;1.42;1.30;;;;;;;;;;4172775;34;20134;-64
2022/06/01 08:14:16;;;;;;;3.60;1.50;;;;;;;;;;4172612;34;20226;-64
2022/06/01 08:16:44;;;;;;;3.87;1.40;;;;;;;;;;4175021;34;20451;-64
2022/06/01 08:19:11;;;;;;;1.60;1.50;;;;;;;;;;4176986;34;20114;-66
2022/06/01 08:21:37;;;;;;;2.42;1.30;;;;;;;;;;4164225;34;20226;-66
2022/06/01 08:24:05;;;;;;;1.45;1.35;;;;;;;;;;4164155;34;20131;-65
2022/06/01 08:26:31;;;;;;;1.77;1.50;;;;;;;;;;4176654;34;20110;-64
2022/06/01 08:28:57;;;;;;;1.17;1.17;;;;;;;;;;4176669;34;20185;-65
2022/06/01 08:31:29;;;;;;;1.55;1.45;;;;;;;;;;4176544;34;20094;-66
2022/06/01 08:33:59;;;;;;;5.78;1.60;;;;;;;;;;4176424;34;20110;-66
2022/06/01 08:36:25;;;;;;;1.60;1.50;;;;;;;;;;4176828;34;20095;-64
2022/06/01 08:38:51;;;;;;;1.50;1.40;;;;;;;;;;4176479;34;20121;-65
2022/06/01 08:41:21;;;;;;;1.45;1.35;;;;;;;;;;4176455;34;20538;-67
2022/06/01 08:43:51;;;;;;;1.50;1.40;;;;;;;;;;4163860;34;20514;-63
2022/06/01 08:46:18;;;;;;;2.20;1.25;;;;;;;;;;4163883;34;20544;-65
2022/06/01 08:48:57;;;;;;;1.98;1.50;;;;;;;;;;4163665;34;20123;-66
2022/06/01 08:51:29;;;;;;;1.50;1.40;;;;;;;;;;4176427;34;20213;-66
2022/06/01 08:53:57;;;;;;;1.35;1.25;;;;;;;;;;4176346;34;20206;-66
2022/06/01 08:56:33;;;;;;;1.62;1.52;;;;;;;;;;4163716;34;20110;-65
2022/06/01 08:59:11;;;;;;;2.95;1.70;;;;;;;;;;4176434;34;20210;-65
2022/06/01 09:01:50;;;;;;;1.50;1.40;;;;;;;;;;4163778;34;20546;-66
2022/06/01 09:04:50;;;;;;;2.20;1.42;;;;;;;;;;4163610;34;20133;-67
2022/06/01 09:07:29;;;;;;;5.75;1.48;;;;;;;;;;4176126;34;20114;-65
2022/06/01 09:10:14;;;;;;;2.10;1.15;;;;;;;;;;4174299;34;20110;-65
2022/06/01 09:12:41;;;;;;;3.33;1.40;;;;;;;;;;4171826;34;20548;-65
2022/06/01 09:15:18;;;;;;;3.12;1.37;;;;;;;;;;4159100;34;20118;-65
2022/06/01 09:17:45;;;;;;;1.40;1.30;;;;;;;;;;4159342;34;20144;-65
2022/06/01 09:23:10;;;;;;;1.52;1.42;;;;;;;;;;4175965;34;20467;-61
2022/06/01 09:25:36;;;;;;;1.12;1.12;;;;;;;;;;4176502;34;20222;-61
2022/06/01 09:28:18;;;;;;;2.00;1.25;;;;;;;;;;4176220;34;20130;-61
2022/06/01 09:30:49;;;;;;;1.60;1.50;;;;;;;;;;4176435;34;20111;-61
2022/06/01 09:33:26;;;;;;;1.50;1.40;;;;;;;;;;4177394;34;20255;-61
2022/06/01 09:36:07;;;;;;;1.60;1.50;;;;;;;;;;4178185;34;20137;-61
2022/06/01 09:38:39;;;;;;;2.20;1.45;;;;;;;;;;4178328;34;20089;-61
2022/06/01 09:41:07;;;;;;;1.40;1.30;;;;;;;;;;4178385;34;20191;-61
2022/06/01 09:43:33;;;;;;;1.40;1.30;;;;;;;;;;4178053;34;20462;-63
2022/06/01 09:45:59;;;;;;;1.40;1.30;;;;;;;;;;4177735;34;20130;-62
2022/06/01 09:48:34;;;;;;;1.20;1.20;;;;;;;;;;4176028;34;20114;-62
2022/06/01 09:51:02;;;;;;;;;;;;;;;;;;4176146;34;20529;-63
2022/06/01 09:53:36;;;;;;;1.20;1.20;;;;;;;;;;4175937;34;20005;-63
2022/06/01 09:56:03;;;;;;;2.87;1.33;;;;;;;;;;4175942;34;20591;-65
2022/06/01 10:06:58;;;;;;;2.58;1.45;;;;;;;;;;4177127;34;20145;-64
2022/06/01 10:09:32;;;;;;;2.15;1.85;;;;;;;;;;4177950;34;20636;-64
2022/06/01 10:11:59;;;;;;;1.27;1.17;;;;;;;;;;4165299;34;20607;-64
2022/06/01 10:14:34;;;;;;;3.25;1.48;;;;;;;;;;4177800;34;20214;-63
2022/06/01 10:17:14;;;;;;;5.18;1.50;;;;;;;;;;4165388;34;20451;-63
2022/06/01 10:19:43;;;;;;;1.50;1.40;;;;;;;;;;4178011;34;20486;-63
2022/06/01 10:22:12;;;;;;;1.62;1.52;;;;;;;;;;4177810;34;20516;-64
2022/06/01 10:24:47;;;;;;;2.42;1.60;;;;;;;;;;4165232;34;20136;-63
2022/06/01 10:27:13;;;;;;;2.53;1.40;;;;;;;;;;4178095;34;20117;-63
2022/06/01 10:29:45;;;;;;;2.92;1.35;;;;;;;;;;4177786;34;20086;-63
2022/06/01 10:32:30;;;;;;;1.42;1.33;;;;;;;;;;4165131;34;20098;-64
2022/06/01 10:35:08;;;;;;;2.08;1.05;;;;;;;;;;4177799;34;20106;-64
2022/06/01 10:38:01;;;;;;;1.30;1.17;;;;;;;;;;4165359;34;20106;-66
2022/06/01 10:40:43;;;;;;;1.20;1.10;;;;;;;;;;4178072;34;20130;-64
2022/06/01 10:43:19;;;;;;;1.40;1.40;;;;;;;;;;4164830;34;20524;-64
2022/06/01 10:45:47;;;;;;;1.30;1.30;;;;;;;;;;4177124;34;20106;-63
2022/06/01 10:48:23;;;;;;;1.98;1.23;;;;;;;;;;4164723;34;20140;-64
2022/06/01 10:51:04;;;;;;;1.40;1.30;;;;;;;;;;4165173;34;20157;-64
2022/06/01 10:53:37;;;;;;;1.30;1.30;;;;;;;;;;4177513;34;20518;-64
2022/06/01 10:56:03;;;;;;;7.32;1.73;;;;;;;;;;4177729;34;20114;-63
2022/06/01 10:58:30;;;;;;;1.83;1.30;;;;;;;;;;4177647;34;20106;-64
2022/06/01 11:01:21;;;;;;;1.98;1.50;;;;;;;;;;4165186;34;20206;-61
2022/06/01 11:04:39;;;;;;;3.17;1.40;;;;;;;;;;4165042;34;20459;-62
2022/06/01 11:07:17;;;;;;;1.40;1.30;;;;;;;;;;4160091;34;20497;-63
2022/06/01 11:10:00;;;;;;;1.48;1.37;;;;;;;;;;4177499;34;20102;-62
2022/06/01 11:12:33;;;;;;;1.73;1.40;;;;;;;;;;4177427;34;20138;-62
2022/06/01 11:15:09;;;;;;;1.33;1.23;;;;;;;;;;4177431;34;20103;-63
2022/06/01 11:17:55;;;;;;;1.60;1.10;;;;;;;;;;4177806;34;20117;-64
2022/06/01 11:20:40;;;;;;;3.90;1.50;;;;;;;;;;4177464;34;20577;-63
2022/06/01 11:23:31;;;;;;;1.60;1.30;;;;;;;;;;4177506;34;20120;-64
2022/06/01 11:26:36;;;;;;;2.70;1.30;;;;;;;;;;4164736;34;20558;-63
2022/06/01 11:29:10;;;;;;;3.53;1.20;;;;;;;;;;4177408;34;20098;-64
2022/06/01 11:31:37;;;;;;;1.50;1.40;;;;;;;;;;4177518;34;20098;-63
2022/06/01 11:34:11;;;;;;;2.25;1.60;;;;;;;;;;4164603;34;20129;-63
2022/06/01 11:36:44;;;;;;;3.05;1.45;;;;;;;;;;4177584;34;20130;-62
2022/06/01 11:39:33;;;;;;;1.60;1.45;;;;;;;;;;4177181;34;20550;-63
2022/06/01 11:42:07;;;;;;;4.60;1.65;;;;;;;;;;4177409;34;20169;-64
2022/06/01 11:44:38;;;;;;;5.47;1.58;;;;;;;;;;4153256;34;20114;-63
2022/06/01 11:47:10;;;;;;;2.28;1.40;;;;;;;;;;4177158;34;20182;-63
2022/06/01 11:49:41;;;;;;;4.07;1.42;;;;;;;;;;4164426;34;20095;-63
2022/06/01 11:52:31;;;;;;;1.45;1.35;;;;;;;;;;4177206;34;20121;-64
2022/06/01 11:55:06;;;;;;;5.55;1.40;;;;;;;;;;4163942;34;20218;-63
2022/06/01 11:57:39;;;;;;;3.90;1.30;;;;;;;;;;4177113;34;20129;-63
2022/06/01 12:00:16;;;;;;;1.50;1.40;;;;;;;;;;4177292;34;20277;-62
2022/06/01 12:02:45;;;;;;;3.53;1.55;;;;;;;;;;4177341;34;20134;-63
2022/06/01 12:05:30;;;;;;;3.80;1.52;;;;;;;;;;4176953;34;20117;-63
2022/06/01 12:08:32;;;;;;;1.58;1.48;;;;;;;;;;4164619;34;20222;-63
2022/06/01 12:11:04;;;;;;;1.58;1.48;;;;;;;;;;4177058;34;20479;-64
2022/06/01 12:13:36;;;;;;;2.15;1.37;;;;;;;;;;4164114;34;20142;-64
2022/06/01 12:16:04;;;;;;;2.35;1.42;;;;;;;;;;4177036;34;20194;-65
2022/06/01 12:18:35;;;;;;;4.40;1.87;;;;;;;;;;4177044;34;20174;-64
2022/06/01 12:21:25;;;;;;;1.50;1.40;;;;;;;;;;4164555;34;20210;-64
2022/06/01 12:30:22;;;;;;;1.45;1.30;;;;;;;;;;4176674;34;20141;-62
2022/06/01 12:32:59;;;;;;;2.05;1.85;;;;;;;;;;4176640;34;20113;-63
2022/06/01 12:35:43;;;;;;;4.10;1.58;;;;;;;;;;4176658;34;20137;-65
2022/06/01 12:38:33;;;;;;;1.35;1.27;;;;;;;;;;4176543;34;20099;-63
2022/06/01 12:41:06;;;;;;;2.70;1.42;;;;;;;;;;4176608;34;20218;-63
2022/06/01 12:43:34;;;;;;;2.85;1.67;;;;;;;;;;4163697;34;20209;-65
2022/06/01 12:46:00;;;;;;;2.12;1.90;;;;;;;;;;4163807;34;20122;-64
2022/06/01 12:48:27;;;;;;;1.70;1.60;;;;;;;;;;4163592;34;20145;-63
2022/06/01 12:50:59;;;;;;;5.10;2.08;;;;;;;;;;4176546;34;20138;-63
2022/06/01 12:53:27;;;;;;;1.77;1.65;;;;;;;;;;4176446;34;20138;-63
2022/06/01 12:56:08;;;;;;;3.28;1.70;;;;;;;;;;4176429;34;20123;-64
2022/06/01 12:58:34;;;;;;;1.55;1.45;;;;;;;;;;4176332;34;20119;-64
2022/06/01 13:01:00;;;;;;;1.92;1.48;;;;;;;;;;4176402;34;20153;-63
2022/06/01 13:03:33;;;;;;;2.95;1.80;;;;;;;;;;4163541;34;20514;-64
2022/06/01 13:06:08;;;;;;;1.77;1.67;;;;;;;;;;4176464;34;20094;-64
2022/06/01 13:08:39;;;;;;;2.67;1.50;;;;;;;;;;4177769;34;20210;-63
2022/06/01 13:11:25;;;;;;;4.50;2.22;;;;;;;;;;4178496;34;20090;-63
2022/06/01 13:13:51;;;;;;;8.52;1.58;;;;;;;;;;4178271;34;20102;-63
2022/06/01 13:16:19;;;;;;;2.30;1.83;;;;;;;;;;4178353;34;20093;-62
2022/06/01 13:18:46;;;;;;;2.45;1.77;;;;;;;;;;4178607;34;20168;-62
2022/06/01 13:21:26;;;;;;;5.87;1.50;;;;;;;;;;4178573;34;20094;-63
2022/06/01 13:24:01;;;;;;;2.10;1.55;;;;;;;;;;4178556;34;20163;-63
2022/06/01 13:26:32;;;;;;;1.77;1.48;;;;;;;;;;4178591;34;20235;-62
2022/06/01 13:29:28;;;;;;;2.00;1.75;;;;;;;;;;4165867;34;20112;-62
2022/06/01 13:32:06;;;;;;;3.28;2.17;;;;;;;;;;4163443;34;20287;-63
2022/06/01 13:34:43;;;;;;;3.47;2.20;;;;;;;;;;4165592;34;20115;-63
2022/06/01 13:37:15;;;;;;;5.07;2.67;;;;;;;;;;4178212;34;20122;-62
2022/06/01 13:39:48;;;;;;;2.15;1.62;;;;;;;;;;4178246;34;20106;-61
2022/06/01 13:42:23;;;;;;;8.10;3.37;;;;;;;;;;4178310;34;20458;-60
2022/06/01 13:45:05;;;;;;;3.75;2.53;;;;;;;;;;4178347;34;20186;-65
2022/06/01 13:47:34;;;;;;;2.75;2.03;;;;;;;;;;4178316;34;20130;-63
2022/06/01 13:50:15;;;;;;;3.53;1.80;;;;;;;;;;4178121;34;20133;-62
2022/06/01 13:53:03;;;;;;;4.70;1.77;;;;;;;;;;4178443;34;20110;-62
2022/06/01 13:55:31;;;;;;;4.40;1.90;;;;;;;;;;4177978;34;20129;-63
2022/06/01 13:58:11;;;;;;;11.10;1.80;;;;;;;;;;4178439;34;20221;-64
2022/06/01 14:00:38;;;;;;;6.37;1.77;;;;;;;;;;4165345;34;20108;-64
2022/06/01 14:03:20;;;;;;;2.72;2.28;;;;;;;;;;4178158;34;20190;-64
2022/06/01 14:05:49;;;;;;;7.78;2.10;;;;;;;;;;4177995;34;20110;-61
2022/06/01 14:08:28;;;;;;;9.48;2.25;;;;;;;;;;4177895;34;20193;-62
2022/06/01 14:10:55;;;;;;;4.53;3.00;;;;;;;;;;4178003;34;20112;-62
2022/06/01 14:13:22;;;;;;;2.95;1.73;;;;;;;;;;4177676;34;20142;-62
2022/06/01 14:15:49;;;;;;;2.37;2.17;;;;;;;;;;4178078;34;20121;-63
2022/06/01 14:18:24;;;;;;;3.08;1.90;;;;;;;;;;4165217;34;20222;-63
2022/06/01 14:20:50;;;;;;;9.38;2.00;;;;;;;;;;4178098;34;20101;-63
2022/06/01 14:23:17;;;;;;;12.40;2.60;;;;;;;;;;4177815;34;20187;-63
2022/06/01 14:28:30;;;;;;;14.18;2.03;;;;;;;;;;4177786;34;20202;-62
2022/06/01 14:31:00;;;;;;;7.75;2.28;;;;;;;;;;4177711;34;20102;-63
2022/06/01 14:33:27;;;;;;;7.85;2.12;;;;;;;;;;4164979;34;20095;-63
2022/06/01 14:35:53;;;;;;;2.67;1.95;;;;;;;;;;4165131;34;20095;-63
2022/06/01 14:38:20;;;;;;;4.30;2.00;;;;;;;;;;4164865;34;20116;-63
2022/06/01 14:40:48;;;;;;;8.60;2.62;;;;;;;;;;4177683;34;20214;-63
2022/06/01 14:43:16;;;;;;;3.03;2.10;;;;;;;;;;4177608;34;20106;-63
2022/06/01 14:45:43;;;;;;;5.78;2.12;;;;;;;;;;4165107;34;20110;-63
2022/06/01 14:48:09;;;;;;;3.35;2.60;;;;;;;;;;4177935;34;20133;-63
2022/06/01 14:50:36;;;;;;;2.90;1.83;;;;;;;;;;4164908;34;20210;-62
2022/06/01 14:53:07;;;;;;;5.12;2.00;;;;;;;;;;4177543;34;20111;-63
2022/06/01 14:55:33;;;;;;;10.32;2.10;;;;;;;;;;4177539;34;20132;-62
2022/06/01 14:57:59;;;;;;;4.18;2.37;;;;;;;;;;4177715;34;20572;-63
2022/06/01 15:00:25;;;;;;;4.10;1.98;;;;;;;;;;4177525;34;20395;-63
2022/06/01 15:02:54;;;;;;;7.65;2.85;;;;;;;;;;4177668;34;20186;-62
2022/06/01 15:05:20;;;;;;;7.40;2.30;;;;;;;;;;4164664;34;20530;-62
2022/06/01 15:07:46;;;;;;;8.65;2.28;;;;;;;;;;4165216;34;20447;-62
2022/06/01 15:10:12;;;;;;;6.60;2.33;;;;;;;;;;4177617;34;20113;-62
2022/06/01 15:12:38;;;;;;;3.10;2.10;;;;;;;;;;4177806;34;20226;-66
2022/06/01 15:15:06;;;;;;;7.85;2.92;;;;;;;;;;4177341;34;20200;-65
2022/06/01 15:17:32;;;;;;;11.02;5.30;;;;;;;;;;4177427;34;20125;-66
2022/06/01 15:19:58;;;;;;;4.05;3.12;;;;;;;;;;4177415;34;20117;-64
2022/06/01 15:22:25;;;;;;;6.78;2.60;;;;;;;;;;4177684;34;20324;-64
2022/06/01 15:24:52;;;;;;;4.80;2.50;;;;;;;;;;4177566;34;20133;-63
2022/06/01 15:27:21;;;;;;;3.60;2.55;;;;;;;;;;4177260;34;20099;-64
2022/06/01 15:40:44;;;;;;;4.45;2.30;;;;;;;;;;4177259;34;20126;-62
2022/06/01 15:43:10;;;;;;;5.40;2.33;;;;;;;;;;4177060;34;20208;-62
2022/06/01 15:45:39;;;;;;;3.50;2.17;;;;;;;;;;4177174;34;20148;-62
2022/06/01 15:48:07;;;;;;;4.43;2.42;;;;;;;;;;4164768;34;20123;-63
2022/06/01 15:50:38;;;;;;;7.70;2.40;;;;;;;;;;4153256;34;20113;-63
2022/06/01 15:53:04;;;;;;;26.20;3.60;;;;;;;;;;4164482;34;20113;-64
2022/06/01 15:55:30;;;;;;;2.75;2.40;;;;;;;;;;4177158;34;20099;-65
2022/06/01 15:57:56;;;;;;;9.32;2.60;;;;;;;;;;4177175;34;20121;-64
2022/06/01 16:00:24;;;;;;;4.72;2.47;;;;;;;;;;4176920;34;20138;-63
2022/06/01 16:02:51;;;;;;;8.35;2.97;;;;;;;;;;4176951;34;20108;-64
2022/06/01 16:05:17;;;;;;;11.45;3.67;;;;;;;;;;4177212;34;20102;-64
2022/06/01 16:07:43;;;;;;;7.85;4.12;;;;;;;;;;4164360;34;20110;-64
2022/06/01 16:10:10;;;;;;;6.75;3.65;;;;;;;;;;4176959;34;20195;-63
2022/06/01 16:12:36;;;;;;;13.57;3.75;;;;;;;;;;4176856;34;20109;-64